createdAt,value
2016-11-24T00:01:13.731Z,0
2016-11-24T00:02:13.744Z,0
2016-11-24T00:03:13.820Z,0
2016-11-24T00:04:13.785Z,0
2016-11-24T00:06:13.880Z,0
2016-11-24T00:07:13.846Z,0
2016-11-24T00:08:13.864Z,0
2016-11-24T00:09:13.877Z,0
2016-11-24T00:10:13.898Z,0
2016-11-24T00:12:28.843Z,0
2016-11-24T00:14:13.972Z,0
2016-11-24T00:15:28.898Z,0
2016-11-24T00:16:14.040Z,0
2016-11-24T00:17:14.037Z,0
2016-11-24T00:18:14.040Z,0
2016-11-24T00:19:14.061Z,0
2016-11-24T00:20:29.013Z,0
2016-11-24T00:21:14.097Z,0
2016-11-24T00:22:14.164Z,0
2016-11-24T00:23:14.138Z,0
2016-11-24T00:24:14.162Z,0
2016-11-24T00:25:14.168Z,0
2016-11-24T00:27:29.119Z,0
2016-11-24T00:28:14.231Z,0
2016-11-24T00:29:29.167Z,0
2016-11-24T00:31:14.290Z,0
2016-11-24T00:33:14.324Z,0
2016-11-24T00:34:14.339Z,0
2016-11-24T00:35:14.359Z,0
2016-11-24T00:37:14.395Z,0
2016-11-24T00:38:14.419Z,0
2016-11-24T00:39:14.430Z,0
2016-11-24T00:40:14.480Z,0
2016-11-24T00:41:14.468Z,0
2016-11-24T00:42:14.489Z,0
2016-11-24T00:43:29.424Z,0
2016-11-24T00:44:29.444Z,0
2016-11-24T00:45:14.546Z,0
2016-11-24T00:46:14.566Z,0
2016-11-24T00:47:14.583Z,0
2016-11-24T00:48:14.605Z,0
2016-11-24T00:49:29.526Z,0
2016-11-24T00:50:29.549Z,0
2016-11-24T00:51:14.658Z,0
2016-11-24T00:52:14.683Z,0
2016-11-24T00:53:14.726Z,0
2016-11-24T00:54:14.747Z,0
2016-11-24T00:55:29.640Z,0
2016-11-24T00:56:14.760Z,0
2016-11-24T00:57:15.030Z,0
2016-11-24T00:58:29.706Z,0
2016-11-24T00:59:14.802Z,0
2016-11-24T01:00:14.828Z,0
2016-11-24T01:01:14.852Z,0
2016-11-24T01:02:14.872Z,0
2016-11-24T01:03:14.894Z,0
2016-11-24T01:04:14.956Z,0
2016-11-24T01:05:14.922Z,0
2016-11-24T01:06:14.937Z,0
2016-11-24T01:07:14.964Z,0
2016-11-24T01:08:14.984Z,0
2016-11-24T01:09:15.002Z,0
2016-11-24T01:10:15.016Z,0
2016-11-24T01:11:15.035Z,0
2016-11-24T01:12:15.058Z,0
2016-11-24T01:13:15.064Z,0
2016-11-24T01:14:30.035Z,0
2016-11-24T01:15:15.105Z,0
2016-11-24T01:16:30.043Z,0
2016-11-24T01:17:15.145Z,0
2016-11-24T01:18:15.167Z,0
2016-11-24T01:19:15.187Z,0
2016-11-24T01:20:15.200Z,0
2016-11-24T01:21:15.230Z,0
2016-11-24T01:22:15.244Z,0
2016-11-24T01:23:15.266Z,0
2016-11-24T01:24:15.283Z,0
2016-11-24T01:25:15.302Z,0
2016-11-24T01:26:30.269Z,0
2016-11-24T01:27:15.331Z,0
2016-11-24T01:28:15.359Z,0
2016-11-24T01:29:15.375Z,0
2016-11-24T01:30:30.299Z,0
2016-11-24T01:31:15.411Z,0
2016-11-24T01:32:15.426Z,0
2016-11-24T01:33:15.761Z,0
2016-11-24T01:34:15.470Z,0
2016-11-24T01:35:15.483Z,0
2016-11-24T01:36:30.419Z,0
2016-11-24T01:37:15.525Z,0
2016-11-24T01:38:15.543Z,0
2016-11-24T01:39:30.470Z,0
2016-11-24T01:40:15.572Z,0
2016-11-24T01:41:15.599Z,0
2016-11-24T01:42:15.622Z,0
2016-11-24T01:43:15.643Z,0
2016-11-24T01:44:30.575Z,0
2016-11-24T01:45:30.576Z,0
2016-11-24T01:46:30.601Z,0
2016-11-24T01:47:15.703Z,0
2016-11-24T01:49:15.741Z,0
2016-11-24T01:50:30.684Z,0
2016-11-24T01:51:30.699Z,0
2016-11-24T01:52:15.840Z,0
2016-11-24T01:53:30.726Z,0
2016-11-24T01:54:15.849Z,0
2016-11-24T01:55:15.863Z,0
2016-11-24T01:56:15.893Z,0
2016-11-24T01:58:15.930Z,0
2016-11-24T01:59:15.938Z,0
2016-11-24T02:00:15.949Z,0
2016-11-24T02:01:15.979Z,0
2016-11-24T02:02:30.905Z,0
2016-11-24T02:03:30.925Z,0
2016-11-24T02:04:30.939Z,0
2016-11-24T02:05:16.043Z,0
2016-11-24T02:06:16.065Z,0
2016-11-24T02:07:30.992Z,0
2016-11-24T02:08:31.015Z,0
2016-11-24T02:09:31.023Z,0
2016-11-24T02:10:16.144Z,0
2016-11-24T02:12:16.172Z,0
2016-11-24T02:13:16.245Z,0
2016-11-24T02:14:16.219Z,0
2016-11-24T02:15:16.234Z,0
2016-11-24T02:16:16.247Z,0
2016-11-24T02:17:16.272Z,0
2016-11-24T02:18:31.213Z,0
2016-11-24T02:19:31.227Z,0
2016-11-24T02:20:31.246Z,0
2016-11-24T02:21:16.352Z,0
2016-11-24T02:22:16.360Z,0
2016-11-24T02:23:31.299Z,0
2016-11-24T02:24:16.412Z,0
2016-11-24T02:25:16.723Z,0
2016-11-24T02:26:16.449Z,0
2016-11-24T02:27:31.384Z,0
2016-11-24T02:28:16.478Z,0
2016-11-24T02:29:16.495Z,0
2016-11-24T02:30:31.442Z,0
2016-11-24T02:31:16.538Z,0
2016-11-24T02:32:31.473Z,0
2016-11-24T02:33:46.693Z,0
2016-11-24T02:34:31.507Z,0
2016-11-24T02:35:31.528Z,0
2016-11-24T02:36:31.541Z,0
2016-11-24T02:37:16.651Z,0
2016-11-24T02:38:31.574Z,0
2016-11-24T02:39:31.622Z,0
2016-11-24T02:40:31.613Z,0
2016-11-24T02:41:16.725Z,0
2016-11-24T02:42:16.740Z,0
2016-11-24T02:43:16.768Z,0
2016-11-24T02:44:16.780Z,0
2016-11-24T02:45:17.109Z,0
2016-11-24T02:46:16.822Z,0
2016-11-24T02:47:16.894Z,0
2016-11-24T02:48:16.848Z,0
2016-11-24T02:49:16.871Z,0
2016-11-24T02:50:16.884Z,0
2016-11-24T02:51:31.822Z,0
2016-11-24T02:52:16.931Z,0
2016-11-24T02:53:16.991Z,0
2016-11-24T02:54:16.967Z,0
2016-11-24T02:55:31.892Z,0
2016-11-24T02:56:31.910Z,0
2016-11-24T02:58:17.039Z,0
2016-11-24T02:59:17.056Z,0
2016-11-24T03:00:17.078Z,0
2016-11-24T03:01:17.093Z,0
2016-11-24T03:02:17.116Z,0
2016-11-24T03:03:17.136Z,0
2016-11-24T03:04:17.149Z,0
2016-11-24T03:05:32.077Z,0
2016-11-24T03:06:17.189Z,0
2016-11-24T03:07:17.197Z,0
2016-11-24T03:08:17.266Z,0
2016-11-24T03:09:32.154Z,0
2016-11-24T03:10:17.260Z,0
2016-11-24T03:11:17.280Z,0
2016-11-24T03:12:17.332Z,0
2016-11-24T03:13:32.226Z,0
2016-11-24T03:14:17.330Z,0
2016-11-24T03:15:32.263Z,0
2016-11-24T03:16:17.368Z,0
2016-11-24T03:17:17.386Z,0
2016-11-24T03:18:17.410Z,0
2016-11-24T03:19:17.422Z,0
2016-11-24T03:20:17.455Z,0
2016-11-24T03:21:32.370Z,0
2016-11-24T03:22:32.395Z,0
2016-11-24T03:23:32.411Z,0
2016-11-24T03:24:17.527Z,0
2016-11-24T03:25:17.546Z,0
2016-11-24T03:26:17.557Z,0
2016-11-24T03:27:32.479Z,0
2016-11-24T03:28:17.592Z,0
2016-11-24T03:29:17.612Z,0
2016-11-24T03:30:17.626Z,0
2016-11-24T03:31:17.647Z,0
2016-11-24T03:32:17.674Z,0
2016-11-24T03:33:17.990Z,0
2016-11-24T03:34:17.709Z,0
2016-11-24T03:35:17.771Z,0
2016-11-24T03:36:17.747Z,0
2016-11-24T03:37:47.570Z,0
2016-11-24T03:38:18.087Z,0
2016-11-24T03:39:17.795Z,0
2016-11-24T03:40:17.811Z,0
2016-11-24T03:41:17.825Z,0
2016-11-24T03:42:17.854Z,0
2016-11-24T03:43:32.780Z,0
2016-11-24T03:44:17.888Z,0
2016-11-24T03:45:17.906Z,0
2016-11-24T03:46:17.932Z,0
2016-11-24T03:47:18.245Z,0
2016-11-24T03:48:17.958Z,0
2016-11-24T03:49:18.021Z,0
2016-11-24T03:50:18.053Z,0
2016-11-24T03:51:32.933Z,0
2016-11-24T03:52:18.329Z,0
2016-11-24T03:53:32.965Z,0
2016-11-24T03:55:18.095Z,0
2016-11-24T03:56:18.106Z,0
2016-11-24T03:58:33.057Z,0
2016-11-24T03:59:18.163Z,0
2016-11-24T04:00:18.183Z,0
2016-11-24T04:01:18.202Z,0
2016-11-24T04:02:18.220Z,0
2016-11-24T04:03:18.241Z,0
2016-11-24T04:04:18.270Z,0
2016-11-24T04:05:18.277Z,0
2016-11-24T04:06:18.295Z,0
2016-11-24T04:07:18.306Z,0
2016-11-24T04:08:33.240Z,0
2016-11-24T04:09:33.265Z,0
2016-11-24T04:10:18.369Z,0
2016-11-24T04:11:18.440Z,0
2016-11-24T04:12:18.438Z,0
2016-11-24T04:13:33.332Z,0
2016-11-24T04:15:18.457Z,0
2016-11-24T04:16:18.485Z,0
2016-11-24T04:18:18.522Z,0
2016-11-24T04:19:18.525Z,0
2016-11-24T04:20:18.541Z,0
2016-11-24T04:21:18.574Z,0
2016-11-24T04:22:18.591Z,0
2016-11-24T04:23:33.525Z,0
2016-11-24T04:24:18.632Z,0
2016-11-24T04:25:18.646Z,0
2016-11-24T04:26:18.659Z,0
2016-11-24T04:27:18.693Z,0
2016-11-24T04:28:33.615Z,0
2016-11-24T04:29:33.623Z,0
2016-11-24T04:32:18.825Z,0
2016-11-24T04:33:18.793Z,0
2016-11-24T04:34:18.812Z,0
2016-11-24T04:35:18.830Z,0
2016-11-24T04:36:18.856Z,0
2016-11-24T04:37:18.899Z,0
2016-11-24T04:38:18.883Z,0
2016-11-24T04:39:18.911Z,0
2016-11-24T04:40:33.830Z,0
2016-11-24T04:42:18.966Z,0
2016-11-24T04:43:18.967Z,0
2016-11-24T04:44:19.001Z,0
2016-11-24T04:45:19.020Z,0
2016-11-24T04:46:19.041Z,0
2016-11-24T04:47:19.052Z,0
2016-11-24T04:48:19.074Z,0
2016-11-24T04:49:19.083Z,0
2016-11-24T04:50:19.109Z,0
2016-11-24T04:51:19.130Z,0
2016-11-24T04:52:19.140Z,0
2016-11-24T04:53:19.164Z,0
2016-11-24T04:54:19.179Z,0
2016-11-24T04:56:34.130Z,0
2016-11-24T04:58:19.245Z,0
2016-11-24T04:59:19.264Z,0
2016-11-24T05:00:34.200Z,0
2016-11-24T05:01:19.316Z,0
2016-11-24T05:02:19.378Z,0
2016-11-24T05:03:19.344Z,0
2016-11-24T05:04:19.667Z,0
2016-11-24T05:05:19.388Z,0
2016-11-24T05:06:34.304Z,0
2016-11-24T05:07:19.424Z,0
2016-11-24T05:08:19.431Z,0
2016-11-24T05:09:34.361Z,0
2016-11-24T05:10:19.475Z,0
2016-11-24T05:11:19.498Z,0
2016-11-24T05:12:34.416Z,0
2016-11-24T05:13:19.538Z,0
2016-11-24T05:14:19.543Z,0
2016-11-24T05:15:19.589Z,0
2016-11-24T05:16:19.580Z,0
2016-11-24T05:17:19.600Z,0
2016-11-24T05:18:19.623Z,0
2016-11-24T05:19:19.632Z,0
2016-11-24T05:20:34.594Z,0
2016-11-24T05:21:19.673Z,0
2016-11-24T05:22:19.691Z,0
2016-11-24T05:23:19.709Z,0
2016-11-24T05:24:19.758Z,0
2016-11-24T05:25:19.751Z,0
2016-11-24T05:26:19.773Z,0
2016-11-24T05:27:19.784Z,0
2016-11-24T05:28:49.625Z,0
2016-11-24T05:29:19.817Z,0
2016-11-24T05:30:19.841Z,0
2016-11-24T05:31:20.007Z,0
2016-11-24T05:32:19.870Z,0
2016-11-24T05:33:34.810Z,0
2016-11-24T05:34:20.013Z,0
2016-11-24T05:35:34.842Z,0
2016-11-24T05:36:19.951Z,0
2016-11-24T05:37:34.875Z,0
2016-11-24T05:38:19.993Z,0
2016-11-24T05:39:20.007Z,0
2016-11-24T05:40:20.033Z,0
2016-11-24T05:41:20.037Z,0
2016-11-24T05:42:20.057Z,0
2016-11-24T05:43:35.026Z,0
2016-11-24T05:44:20.093Z,0
2016-11-24T05:45:20.122Z,0
2016-11-24T05:46:20.130Z,0
2016-11-24T05:47:20.149Z,0
2016-11-24T05:48:20.168Z,0
2016-11-24T05:49:20.203Z,0
2016-11-24T05:50:35.122Z,0
2016-11-24T05:51:20.227Z,0
2016-11-24T05:52:20.255Z,0
2016-11-24T05:53:20.287Z,0
2016-11-24T05:54:20.289Z,0
2016-11-24T05:55:20.311Z,0
2016-11-24T05:56:20.361Z,0
2016-11-24T05:57:35.250Z,0
2016-11-24T05:58:20.360Z,0
2016-11-24T05:59:20.385Z,0
2016-11-24T06:00:35.305Z,0
2016-11-24T06:01:35.332Z,0
2016-11-24T06:02:20.435Z,0
2016-11-24T06:04:35.376Z,0
2016-11-24T06:05:20.494Z,0
2016-11-24T06:06:20.512Z,0
2016-11-24T06:07:20.534Z,0
2016-11-24T06:08:35.455Z,0
2016-11-24T06:09:20.566Z,0
2016-11-24T06:10:20.590Z,0
2016-11-24T06:11:20.649Z,0
2016-11-24T06:12:20.620Z,0
2016-11-24T06:13:20.725Z,0
2016-11-24T06:14:20.661Z,0
2016-11-24T06:16:20.692Z,0
2016-11-24T06:17:20.707Z,0
2016-11-24T06:18:20.729Z,0
2016-11-24T06:19:35.665Z,0
2016-11-24T06:20:20.770Z,0
2016-11-24T06:22:20.816Z,0
2016-11-24T06:24:20.848Z,0
2016-11-24T06:25:20.857Z,0
2016-11-24T06:26:20.925Z,0
2016-11-24T06:27:20.902Z,0
2016-11-24T06:29:20.946Z,0
2016-11-24T06:30:20.949Z,0
2016-11-24T06:31:35.884Z,0
2016-11-24T06:32:21.000Z,0
2016-11-24T06:33:21.011Z,0
2016-11-24T06:34:21.037Z,0
2016-11-24T06:35:35.967Z,0
2016-11-24T06:36:21.061Z,0
2016-11-24T06:37:21.097Z,0
2016-11-24T06:38:21.106Z,0
2016-11-24T06:39:21.116Z,0
2016-11-24T06:40:36.051Z,0
2016-11-24T06:41:21.164Z,0
2016-11-24T06:42:21.184Z,0
2016-11-24T06:43:21.201Z,0
2016-11-24T06:44:21.214Z,0
2016-11-24T06:45:21.246Z,0
2016-11-24T06:46:21.252Z,0
2016-11-24T06:47:51.102Z,0
2016-11-24T06:48:21.289Z,0
2016-11-24T06:49:21.315Z,0
2016-11-24T06:50:36.250Z,0
2016-11-24T06:51:21.352Z,0
2016-11-24T06:52:21.365Z,5
2016-11-24T06:53:21.398Z,5
2016-11-24T06:54:21.409Z,5
2016-11-24T06:55:21.421Z,5
2016-11-24T06:56:21.439Z,5
2016-11-24T06:57:36.432Z,5
2016-11-24T06:58:21.529Z,5
2016-11-24T06:59:21.497Z,5
2016-11-24T07:00:21.665Z,10
2016-11-24T07:01:21.539Z,10
2016-11-24T07:02:21.560Z,10
2016-11-24T07:03:36.529Z,10
2016-11-24T07:04:36.504Z,10
2016-11-24T07:05:21.942Z,10
2016-11-24T07:06:36.545Z,10
2016-11-24T07:07:21.650Z,10
2016-11-24T07:08:36.577Z,10
2016-11-24T07:09:21.687Z,10
2016-11-24T07:10:36.610Z,15
2016-11-24T07:11:21.729Z,15
2016-11-24T07:12:36.650Z,20
2016-11-24T07:13:21.765Z,20
2016-11-24T07:14:21.781Z,20
2016-11-24T07:15:36.704Z,25
2016-11-24T07:17:21.824Z,30
2016-11-24T07:18:36.754Z,30
2016-11-24T07:21:22.061Z,35
2016-11-24T07:22:21.925Z,40
2016-11-24T07:23:21.979Z,40
2016-11-24T07:24:36.866Z,40
2016-11-24T07:25:21.989Z,45
2016-11-24T07:26:22.007Z,45
2016-11-24T07:27:22.120Z,45
2016-11-24T07:29:36.963Z,45
2016-11-24T07:30:22.126Z,45
2016-11-24T07:31:22.092Z,45
2016-11-24T07:32:22.119Z,45
2016-11-24T07:33:37.054Z,50
2016-11-24T07:34:22.155Z,50
2016-11-24T07:35:37.083Z,50
2016-11-24T07:36:22.192Z,50
2016-11-24T07:37:22.201Z,55
2016-11-24T07:38:22.218Z,55
2016-11-24T07:39:22.242Z,55
2016-11-24T07:40:37.172Z,55
2016-11-24T07:41:22.281Z,55
2016-11-24T07:42:22.304Z,60
2016-11-24T07:43:22.319Z,60
2016-11-24T07:44:22.330Z,60
2016-11-24T07:45:22.352Z,60
2016-11-24T07:46:22.380Z,65
2016-11-24T07:47:22.721Z,65
2016-11-24T07:48:22.414Z,65
2016-11-24T07:50:37.361Z,65
2016-11-24T07:51:37.378Z,65
2016-11-24T07:52:22.491Z,65
2016-11-24T07:53:37.422Z,70
2016-11-24T07:54:22.525Z,70
2016-11-24T07:55:22.544Z,70
2016-11-24T07:56:22.646Z,70
2016-11-24T07:57:37.493Z,75
2016-11-24T07:58:22.608Z,75
2016-11-24T07:59:22.618Z,75
2016-11-24T08:00:37.547Z,75
2016-11-24T08:01:22.666Z,75
2016-11-24T08:02:22.679Z,75
2016-11-24T08:03:22.696Z,80
2016-11-24T08:06:37.977Z,90
2016-11-24T08:07:22.825Z,95
2016-11-24T08:08:37.709Z,105
2016-11-24T08:09:22.820Z,110
2016-11-24T08:10:22.882Z,115
2016-11-24T08:12:22.873Z,110
2016-11-24T08:13:37.796Z,100
2016-11-24T08:14:22.902Z,95
2016-11-24T08:15:22.983Z,90
2016-11-24T08:16:22.950Z,95
2016-11-24T08:17:22.977Z,105
2016-11-24T08:18:22.980Z,105
2016-11-24T08:19:23.004Z,110
2016-11-24T08:20:23.022Z,110
2016-11-24T08:21:23.035Z,115
2016-11-24T08:22:37.976Z,115
2016-11-24T08:23:23.408Z,115
2016-11-24T08:25:23.122Z,115
2016-11-24T08:26:23.148Z,115
2016-11-24T08:27:23.159Z,115
2016-11-24T08:28:23.179Z,120
2016-11-24T08:29:23.202Z,125
2016-11-24T08:30:23.223Z,125
2016-11-24T08:31:23.289Z,125
2016-11-24T08:32:23.257Z,130
2016-11-24T08:33:23.279Z,125
2016-11-24T08:34:23.296Z,130
2016-11-24T08:35:38.225Z,135
2016-11-24T08:36:23.338Z,135
2016-11-24T08:37:23.357Z,130
2016-11-24T08:38:53.198Z,135
2016-11-24T08:39:23.395Z,120
2016-11-24T08:40:23.450Z,135
2016-11-24T08:41:23.457Z,135
2016-11-24T08:42:23.460Z,135
2016-11-24T08:43:23.474Z,135
2016-11-24T08:44:23.505Z,140
2016-11-24T08:45:23.518Z,135
2016-11-24T08:46:23.526Z,135
2016-11-24T08:47:23.552Z,125
2016-11-24T08:48:23.565Z,135
2016-11-24T08:49:23.595Z,125
2016-11-24T08:50:23.916Z,125
2016-11-24T08:51:23.643Z,120
2016-11-24T08:52:23.653Z,120
2016-11-24T08:54:23.690Z,115
2016-11-24T08:55:23.712Z,115
2016-11-24T08:56:23.728Z,115
2016-11-24T08:57:23.807Z,115
2016-11-24T08:58:38.689Z,120
2016-11-24T08:59:23.796Z,125
2016-11-24T09:00:24.012Z,125
2016-11-24T09:01:23.826Z,125
2016-11-24T09:02:38.811Z,130
2016-11-24T09:03:23.872Z,130
2016-11-24T09:04:23.899Z,130
2016-11-24T09:05:23.913Z,125
2016-11-24T09:06:23.938Z,125
2016-11-24T09:08:23.972Z,125
2016-11-24T09:09:23.987Z,125
2016-11-24T09:10:38.926Z,125
2016-11-24T09:11:38.944Z,130
2016-11-24T09:12:24.061Z,120
2016-11-24T09:13:24.094Z,120
2016-11-24T09:14:24.096Z,120
2016-11-24T09:15:24.117Z,120
2016-11-24T09:16:24.126Z,130
2016-11-24T09:17:24.147Z,125
2016-11-24T09:18:24.174Z,130
2016-11-24T09:19:39.101Z,125
2016-11-24T09:20:24.217Z,125
2016-11-24T09:21:24.226Z,120
2016-11-24T09:22:24.248Z,120
2016-11-24T09:23:24.266Z,120
2016-11-24T09:24:24.286Z,120
2016-11-24T09:25:39.220Z,120
2016-11-24T09:26:24.359Z,120
2016-11-24T09:27:24.346Z,120
2016-11-24T09:28:39.283Z,120
2016-11-24T09:29:24.393Z,120
2016-11-24T09:30:24.408Z,120
2016-11-24T09:31:39.338Z,120
2016-11-24T09:32:24.442Z,120
2016-11-24T09:33:24.466Z,115
2016-11-24T09:34:24.506Z,120
2016-11-24T09:35:24.506Z,115
2016-11-24T09:36:24.530Z,115
2016-11-24T09:37:24.862Z,115
2016-11-24T09:38:24.577Z,120
2016-11-24T09:39:24.594Z,115
2016-11-24T09:40:24.612Z,115
2016-11-24T09:41:39.534Z,115
2016-11-24T09:42:24.653Z,115
2016-11-24T09:43:24.675Z,115
2016-11-24T09:44:24.681Z,115
2016-11-24T09:45:25.171Z,115
2016-11-24T09:47:24.807Z,115
2016-11-24T09:48:24.771Z,110
2016-11-24T09:49:39.697Z,115
2016-11-24T09:50:24.807Z,115
2016-11-24T09:51:24.826Z,115
2016-11-24T09:52:24.846Z,110
2016-11-24T09:53:24.873Z,110
2016-11-24T09:54:39.798Z,105
2016-11-24T09:55:24.913Z,110
2016-11-24T09:57:39.867Z,105
2016-11-24T09:58:24.969Z,105
2016-11-24T09:59:24.990Z,105
2016-11-24T10:00:25.010Z,105
2016-11-24T10:01:25.032Z,105
2016-11-24T10:02:25.051Z,100
2016-11-24T10:03:40.030Z,100
2016-11-24T10:04:40.000Z,95
2016-11-24T10:05:25.117Z,95
2016-11-24T10:06:25.124Z,95
2016-11-24T10:07:25.156Z,95
2016-11-24T10:08:25.180Z,95
2016-11-24T10:09:25.191Z,95
2016-11-24T10:10:25.213Z,95
2016-11-24T10:11:25.228Z,95
2016-11-24T10:12:40.158Z,95
2016-11-24T10:13:55.154Z,95
2016-11-24T10:14:40.201Z,95
2016-11-24T10:15:40.221Z,95
2016-11-24T10:16:25.647Z,95
2016-11-24T10:17:40.288Z,95
2016-11-24T10:18:25.382Z,90
2016-11-24T10:19:40.303Z,90
2016-11-24T10:20:25.406Z,90
2016-11-24T10:21:25.427Z,90
2016-11-24T10:22:25.459Z,90
2016-11-24T10:23:25.470Z,90
2016-11-24T10:24:25.495Z,90
2016-11-24T10:25:25.523Z,90
2016-11-24T10:26:25.531Z,90
2016-11-24T10:27:25.552Z,90
2016-11-24T10:28:40.486Z,90
2016-11-24T10:29:25.582Z,90
2016-11-24T10:30:25.601Z,90
2016-11-24T10:31:40.544Z,90
2016-11-24T10:32:25.647Z,90
2016-11-24T10:33:25.672Z,90
2016-11-24T10:34:25.688Z,90
2016-11-24T10:35:25.716Z,90
2016-11-24T10:36:40.645Z,90
2016-11-24T10:37:25.866Z,90
2016-11-24T10:38:25.773Z,95
2016-11-24T10:39:25.796Z,90
2016-11-24T10:40:25.804Z,90
2016-11-24T10:41:25.838Z,90
2016-11-24T10:42:25.843Z,90
2016-11-24T10:43:25.873Z,90
2016-11-24T10:44:25.888Z,90
2016-11-24T10:45:25.903Z,90
2016-11-24T10:46:25.923Z,90
2016-11-24T10:47:25.957Z,90
2016-11-24T10:48:25.970Z,85
2016-11-24T10:49:25.987Z,85
2016-11-24T10:50:26.004Z,85
2016-11-24T10:51:40.935Z,85
2016-11-24T10:52:26.050Z,85
2016-11-24T10:53:26.063Z,80
2016-11-24T10:54:26.105Z,80
2016-11-24T10:55:26.109Z,85
2016-11-24T10:56:26.125Z,85
2016-11-24T10:57:26.143Z,85
2016-11-24T10:58:26.164Z,85
2016-11-24T10:59:26.184Z,80
2016-11-24T11:00:41.119Z,80
2016-11-24T11:01:26.425Z,85
2016-11-24T11:02:26.257Z,85
2016-11-24T11:03:26.264Z,85
2016-11-24T11:04:26.285Z,80
2016-11-24T11:05:26.299Z,90
2016-11-24T11:06:26.319Z,85
2016-11-24T11:07:26.339Z,80
2016-11-24T11:08:26.558Z,85
2016-11-24T11:09:41.293Z,95
2016-11-24T11:10:26.416Z,90
2016-11-24T11:11:26.427Z,85
2016-11-24T11:12:26.798Z,85
2016-11-24T11:13:26.775Z,90
2016-11-24T11:14:26.479Z,90
2016-11-24T11:15:41.421Z,85
2016-11-24T11:16:41.439Z,85
2016-11-24T11:17:26.587Z,85
2016-11-24T11:18:41.480Z,85
2016-11-24T11:19:41.512Z,90
2016-11-24T11:20:26.599Z,90
2016-11-24T11:21:41.533Z,90
2016-11-24T11:22:26.636Z,90
2016-11-24T11:23:26.669Z,90
2016-11-24T11:24:26.736Z,90
2016-11-24T11:25:26.709Z,85
2016-11-24T11:26:26.728Z,95
2016-11-24T11:27:26.776Z,95
2016-11-24T11:28:26.759Z,95
2016-11-24T11:29:26.787Z,100
2016-11-24T11:30:26.798Z,100
2016-11-24T11:31:26.822Z,100
2016-11-24T11:32:41.748Z,100
2016-11-24T11:33:26.862Z,100
2016-11-24T11:34:26.930Z,100
2016-11-24T11:35:26.907Z,100
2016-11-24T11:36:26.927Z,100
2016-11-24T11:37:26.941Z,100
2016-11-24T11:38:26.964Z,100
2016-11-24T11:39:26.982Z,100
2016-11-24T11:40:26.998Z,100
2016-11-24T11:41:42.871Z,100
2016-11-24T11:42:27.044Z,100
2016-11-24T11:43:27.061Z,100
2016-11-24T11:44:27.414Z,95
2016-11-24T11:45:27.099Z,95
2016-11-24T11:46:27.129Z,100
2016-11-24T11:48:42.072Z,95
2016-11-24T11:49:27.187Z,95
2016-11-24T11:50:27.504Z,90
2016-11-24T11:51:42.136Z,95
2016-11-24T11:52:27.241Z,100
2016-11-24T11:53:27.264Z,100
2016-11-24T11:54:27.280Z,95
2016-11-24T11:55:27.353Z,95
2016-11-24T11:56:27.348Z,95
2016-11-24T11:57:27.342Z,95
2016-11-24T11:58:27.365Z,95
2016-11-24T11:59:42.325Z,95
2016-11-24T12:01:27.423Z,95
2016-11-24T12:02:27.447Z,95
2016-11-24T12:03:42.382Z,100
2016-11-24T12:04:27.478Z,95
2016-11-24T12:05:27.503Z,95
2016-11-24T12:06:42.441Z,95
2016-11-24T12:07:27.545Z,100
2016-11-24T12:08:27.576Z,100
2016-11-24T12:09:42.491Z,95
2016-11-24T12:11:27.629Z,95
2016-11-24T12:12:27.886Z,95
2016-11-24T12:13:27.980Z,95
2016-11-24T12:14:27.689Z,95
2016-11-24T12:15:28.055Z,90
2016-11-24T12:16:27.728Z,90
2016-11-24T12:17:27.747Z,90
2016-11-24T12:18:42.682Z,90
2016-11-24T12:19:27.786Z,90
2016-11-24T12:20:27.811Z,90
2016-11-24T12:21:27.823Z,85
2016-11-24T12:22:28.157Z,85
2016-11-24T12:23:27.890Z,85
2016-11-24T12:24:27.889Z,85
2016-11-24T12:25:27.955Z,85
2016-11-24T12:26:42.841Z,80
2016-11-24T12:27:27.954Z,80
2016-11-24T12:28:27.968Z,80
2016-11-24T12:29:42.896Z,80
2016-11-24T12:30:28.001Z,80
2016-11-24T12:31:28.028Z,80
2016-11-24T12:32:28.050Z,80
2016-11-24T12:33:28.074Z,80
2016-11-24T12:34:28.087Z,80
2016-11-24T12:35:43.027Z,75
2016-11-24T12:36:28.129Z,75
2016-11-24T12:37:28.157Z,75
2016-11-24T12:38:43.117Z,75
2016-11-24T12:39:28.196Z,75
2016-11-24T12:40:28.216Z,75
2016-11-24T12:41:43.136Z,75
2016-11-24T12:42:28.253Z,75
2016-11-24T12:43:28.284Z,70
2016-11-24T12:44:28.287Z,70
2016-11-24T12:46:28.653Z,70
2016-11-24T12:47:28.343Z,70
2016-11-24T12:48:28.381Z,70
2016-11-24T12:49:28.392Z,70
2016-11-24T12:50:43.329Z,70
2016-11-24T12:51:43.340Z,70
2016-11-24T12:52:28.457Z,70
2016-11-24T12:53:28.477Z,70
2016-11-24T12:54:43.402Z,70
2016-11-24T12:55:28.506Z,70
2016-11-24T12:56:28.529Z,70
2016-11-24T12:57:28.551Z,70
2016-11-24T12:58:28.606Z,70
2016-11-24T12:59:28.587Z,70
2016-11-24T13:00:28.618Z,70
2016-11-24T13:01:28.632Z,70
2016-11-24T13:02:28.649Z,70
2016-11-24T13:03:28.669Z,70
2016-11-24T13:04:28.686Z,70
2016-11-24T13:05:28.713Z,70
2016-11-24T13:06:28.739Z,70
2016-11-24T13:07:43.664Z,70
2016-11-24T13:08:43.684Z,70
2016-11-24T13:09:28.793Z,70
2016-11-24T13:10:29.120Z,70
2016-11-24T13:11:28.824Z,70
2016-11-24T13:12:28.850Z,70
2016-11-24T13:13:28.863Z,70
2016-11-24T13:14:28.889Z,65
2016-11-24T13:15:28.919Z,65
2016-11-24T13:16:43.843Z,65
2016-11-24T13:17:28.953Z,65
2016-11-24T13:18:28.961Z,70
2016-11-24T13:20:43.914Z,65
2016-11-24T13:21:29.029Z,65
2016-11-24T13:22:29.049Z,65
2016-11-24T13:23:43.984Z,65
2016-11-24T13:24:29.101Z,65
2016-11-24T13:25:29.102Z,65
2016-11-24T13:26:29.132Z,65
2016-11-24T13:27:29.151Z,65
2016-11-24T13:28:29.176Z,60
2016-11-24T13:29:44.102Z,60
2016-11-24T13:30:29.215Z,60
2016-11-24T13:31:44.138Z,60
2016-11-24T13:32:29.262Z,60
2016-11-24T13:33:44.183Z,60
2016-11-24T13:34:29.285Z,60
2016-11-24T13:35:29.309Z,60
2016-11-24T13:36:44.315Z,60
2016-11-24T13:37:29.403Z,55
2016-11-24T13:38:44.281Z,55
2016-11-24T13:39:29.396Z,55
2016-11-24T13:40:44.323Z,55
2016-11-24T13:41:29.430Z,55
2016-11-24T13:42:44.363Z,55
2016-11-24T13:43:29.470Z,55
2016-11-24T13:44:29.814Z,55
2016-11-24T13:45:29.504Z,55
2016-11-24T13:46:29.532Z,55
2016-11-24T13:47:29.550Z,55
2016-11-24T13:48:29.566Z,55
2016-11-24T13:49:29.587Z,50
2016-11-24T13:50:29.622Z,50
2016-11-24T13:51:29.632Z,50
2016-11-24T13:52:29.704Z,50
2016-11-24T13:53:29.665Z,50
2016-11-24T13:54:29.688Z,50
2016-11-24T13:55:29.713Z,45
2016-11-24T13:57:30.071Z,45
2016-11-24T13:58:44.683Z,45
2016-11-24T13:59:29.787Z,45
2016-11-24T14:01:44.737Z,40
2016-11-24T14:02:44.761Z,40
2016-11-24T14:03:29.873Z,40
2016-11-24T14:04:29.890Z,40
2016-11-24T14:06:29.985Z,40
2016-11-24T14:07:29.947Z,40
2016-11-24T14:08:44.931Z,35
2016-11-24T14:09:30.041Z,35
2016-11-24T14:10:44.918Z,35
2016-11-24T14:11:30.035Z,35
2016-11-24T14:12:30.050Z,35
2016-11-24T14:13:44.981Z,35
2016-11-24T14:14:30.095Z,30
2016-11-24T14:15:45.017Z,30
2016-11-24T14:16:30.226Z,30
2016-11-24T14:17:30.147Z,30
2016-11-24T14:18:30.165Z,30
2016-11-24T14:19:30.186Z,30
2016-11-24T14:20:30.207Z,30
2016-11-24T14:21:30.234Z,25
2016-11-24T14:22:30.240Z,25
2016-11-24T14:23:30.276Z,25
2016-11-24T14:24:30.273Z,25
2016-11-24T14:25:30.306Z,25
2016-11-24T14:26:45.235Z,25
2016-11-24T14:27:45.575Z,20
2016-11-24T14:28:30.365Z,20
2016-11-24T14:29:30.381Z,20
2016-11-24T14:30:45.311Z,20
2016-11-24T14:31:30.426Z,20
2016-11-24T14:32:30.744Z,20
2016-11-24T14:33:30.451Z,20
2016-11-24T14:34:45.385Z,15
2016-11-24T14:35:45.409Z,15
2016-11-24T14:36:30.511Z,15
2016-11-24T14:37:30.529Z,15
2016-11-24T14:38:30.558Z,15
2016-11-24T14:39:30.570Z,15
2016-11-24T14:40:30.595Z,15
2016-11-24T14:41:30.637Z,15
2016-11-24T14:42:45.539Z,10
2016-11-24T14:43:30.665Z,10
2016-11-24T14:44:30.680Z,10
2016-11-24T14:45:30.737Z,10
2016-11-24T14:46:30.714Z,10
2016-11-24T14:47:30.733Z,10
2016-11-24T14:48:30.749Z,10
2016-11-24T14:49:30.773Z,10
2016-11-24T14:50:30.786Z,5
2016-11-24T14:51:30.802Z,5
2016-11-24T14:52:30.827Z,5
2016-11-24T14:53:30.852Z,5
2016-11-24T14:54:30.862Z,5
2016-11-24T14:55:30.884Z,5
2016-11-24T14:56:30.910Z,5
2016-11-24T14:57:30.916Z,5
2016-11-24T14:58:45.853Z,5
2016-11-24T14:59:45.879Z,0
2016-11-24T15:00:45.887Z,0
2016-11-24T15:01:31.002Z,0
2016-11-24T15:02:31.217Z,0
2016-11-24T15:03:31.052Z,0
2016-11-24T15:04:31.049Z,0
2016-11-24T15:05:31.074Z,0
2016-11-24T15:06:31.098Z,0
2016-11-24T15:07:46.020Z,0
2016-11-24T15:09:31.465Z,0
2016-11-24T15:10:46.078Z,0
2016-11-24T15:11:31.192Z,0
2016-11-24T15:12:31.209Z,0
2016-11-24T15:13:46.141Z,0